Time;durP1;ratioP1;P1;durP2;ratioP2;P2;SDS_P1;SDS_P2;PMS_P1;PMS_P2;Temp;Humidity;BMP_temperature;BMP_pressure;BME280_temperature;BME280_humidity;BME280_pressure;Samples;Min_cycle;Max_cycle;Signal;HPM_P1;HPM_P2
2021/12/09 14:07:17;;;;;;;3.20;2.00;;;14.70;74.10;;;;;;2293602;62;30283;-81
2021/12/09 14:10:23;;;;;;;1.80;1.70;;;14.70;73.50;;;;;;2275139;62;30319;-81
2021/12/09 14:12:56;;;;;;;2.38;2.17;;;14.80;74.70;;;;;;2282755;62;30025;-80
2021/12/09 14:15:39;;;;;;;2.00;1.80;;;14.80;75.70;;;;;;2285319;62;30096;-82
2021/12/09 14:18:12;;;;;;;3.45;2.65;;;14.90;76.40;;;;;;2281859;62;30578;-80
2021/12/09 14:20:38;;;;;;;3.20;2.60;;;14.90;77.00;;;;;;2274887;62;30067;-86
2021/12/09 14:23:06;;;;;;;4.10;2.35;;;14.80;77.30;;;;;;2289104;62;30183;-81
2021/12/09 14:25:34;;;;;;;2.75;2.55;;;14.80;77.60;;;;;;2282405;62;30917;-82
2021/12/09 14:28:01;;;;;;;3.08;2.70;;;14.80;78.00;;;;;;2274425;62;31410;-82
2021/12/09 14:30:28;;;;;;;3.58;2.90;;;14.80;78.10;;;;;;2267889;62;30759;-81
2021/12/09 14:32:57;;;;;;;2.72;2.53;;;14.80;78.10;;;;;;2274093;62;30165;-79
2021/12/09 14:35:25;;;;;;;2.60;2.20;;;14.80;78.10;;;;;;2267680;62;30253;-80
2021/12/09 14:37:52;;;;;;;2.65;2.45;;;14.90;78.10;;;;;;2281745;62;30054;-80
2021/12/09 14:40:26;;;;;;;5.45;2.47;;;14.80;78.00;;;;;;2270596;62;30907;-79
2021/12/09 14:42:59;;;;;;;3.30;2.45;;;14.90;77.90;;;;;;2279977;62;30031;-81
2021/12/09 14:45:27;;;;;;;3.47;2.33;;;14.90;77.80;;;;;;2274415;62;30546;-81
2021/12/09 14:47:58;;;;;;;2.80;2.25;;;15.00;77.80;;;;;;2274172;62;30509;-81
2021/12/09 14:50:43;;;;;;;2.78;2.30;;;15.00;77.40;;;;;;2281005;62;30490;-80
2021/12/09 14:53:10;;;;;;;3.25;2.10;;;15.00;76.70;;;;;;2273460;62;30161;-81
2021/12/09 14:55:40;;;;;;;2.97;2.40;;;15.00;77.30;;;;;;2281113;62;30239;-80
2021/12/09 14:58:10;;;;;;;3.33;2.40;;;15.00;77.10;;;;;;2280738;62;30543;-80
2021/12/09 15:00:57;;;;;;;2.53;2.30;;;15.10;77.00;;;;;;2281605;62;29867;-80
2021/12/09 15:03:34;;;;;;;2.85;2.13;;;15.10;76.90;;;;;;2281396;62;30242;-80
2021/12/09 15:06:01;;;;;;;2.65;2.20;;;15.10;76.20;;;;;;2281567;62;30306;-79
2021/12/09 15:08:28;;;;;;;2.88;2.22;;;15.10;77.50;;;;;;2281772;62;30623;-88
2021/12/09 15:11:07;;;;;;;2.20;1.92;;;15.10;76.60;;;;;;2275058;62;30316;-77
2021/12/09 15:13:47;;;;;;;3.17;2.20;;;15.20;76.40;;;;;;2282558;62;30277;-81
2021/12/09 15:16:22;;;;;;;3.38;2.30;;;15.20;75.50;;;;;;2274914;62;30797;-80
2021/12/09 15:18:48;;;;;;;2.45;2.25;;;15.30;75.90;;;;;;2276793;62;31777;-78
2021/12/09 15:21:25;;;;;;;4.20;2.15;;;15.30;76.50;;;;;;2277118;62;30115;-82
2021/12/09 15:23:55;;;;;;;3.67;2.38;;;15.30;75.80;;;;;;2263071;62;30060;-80
2021/12/09 15:26:25;;;;;;;3.72;2.38;;;15.40;76.80;;;;;;2269655;62;30703;-80
2021/12/09 15:29:10;;;;;;;2.80;2.10;;;15.40;76.40;;;;;;2276915;62;30874;-79
2021/12/09 15:31:38;;;;;;;2.75;2.08;;;15.40;74.90;;;;;;2276594;62;29855;-78
2021/12/09 15:34:16;;;;;;;1.98;1.88;;;15.50;76.20;;;;;;2269860;62;30125;-79
2021/12/09 15:36:54;;;;;;;2.25;1.67;;;15.50;76.00;;;;;;2277029;62;31131;-75
2021/12/09 15:39:25;;;;;;;2.20;2.00;;;15.60;75.60;;;;;;2269828;62;30809;-78
2021/12/09 15:42:02;;;;;;;5.17;2.27;;;15.60;75.20;;;;;;2262885;62;30392;-79
2021/12/09 15:44:33;;;;;;;3.40;1.83;;;15.60;75.30;;;;;;2276953;62;30151;-79
2021/12/09 15:47:05;;;;;;;3.15;1.70;;;15.60;75.10;;;;;;2262733;62;30110;-79
2021/12/09 15:49:38;;;;;;;2.25;1.90;;;15.60;75.00;;;;;;2276802;62;30450;-79
2021/12/09 15:52:04;;;;;;;2.22;2.00;;;15.70;74.60;;;;;;2269676;62;30074;-79
2021/12/09 15:54:37;;;;;;;2.38;1.80;;;15.70;74.70;;;;;;2276836;62;30108;-79
2021/12/09 15:57:07;;;;;;;2.15;1.95;;;15.70;74.60;;;;;;2276907;62;31320;-78
2021/12/09 15:59:34;;;;;;;2.05;1.95;;;15.60;74.50;;;;;;2277031;62;31113;-79
2021/12/09 16:02:02;;;;;;;4.10;2.20;;;15.70;74.50;;;;;;2277011;62;29939;-73
2021/12/09 16:04:29;;;;;;;7.65;1.80;;;15.70;74.40;;;;;;2276950;62;29996;-75
2021/12/09 16:06:56;;;;;;;1.83;1.63;;;15.70;74.20;;;;;;2277093;62;32270;-72
2021/12/09 16:09:22;;;;;;;4.05;1.98;;;15.80;74.00;;;;;;2269701;62;30135;-76
2021/12/09 16:11:50;;;;;;;3.33;2.42;;;15.90;73.70;;;;;;2277899;62;30050;-75
2021/12/09 16:14:21;;;;;;;3.28;2.00;;;16.10;73.60;;;;;;2284771;62;30066;-75
2021/12/09 16:16:51;;;;;;;3.35;1.60;;;16.10;73.30;;;;;;2278109;62;29941;-75
2021/12/09 16:19:19;;;;;;;2.58;1.88;;;16.20;73.10;;;;;;2275482;62;35292;-77
2021/12/09 16:21:55;;;;;;;2.60;1.90;;;16.20;72.90;;;;;;2269373;62;30304;-76
2021/12/09 16:24:21;;;;;;;3.15;1.92;;;16.20;72.70;;;;;;2270488;62;29950;-76
2021/12/09 16:26:50;;;;;;;2.92;1.90;;;16.30;72.70;;;;;;2268510;62;30139;-77
2021/12/09 16:29:19;;;;;;;1.80;1.52;;;16.30;72.70;;;;;;2262950;62;30136;-76
2021/12/09 16:31:45;;;;;;;2.95;2.10;;;16.30;72.50;;;;;;2284069;62;30178;-77
2021/12/09 16:34:11;;;;;;;1.98;1.73;;;16.30;72.50;;;;;;2284108;62;30307;-76
2021/12/09 16:36:37;;;;;;;2.25;1.85;;;16.30;72.40;;;;;;2283592;62;30157;-78
2021/12/09 16:39:03;;;;;;;2.88;1.60;;;16.30;72.30;;;;;;2283943;62;30560;-76
2021/12/09 16:41:29;;;;;;;2.30;2.10;;;16.30;72.20;;;;;;2283723;62;30052;-78
2021/12/09 16:43:55;;;;;;;2.42;2.00;;;16.40;72.30;;;;;;2276427;62;30212;-79
2021/12/09 16:46:21;;;;;;;1.95;1.85;;;16.40;72.20;;;;;;2283913;62;30138;-79
2021/12/09 16:48:47;;;;;;;2.10;1.90;;;16.40;72.20;;;;;;2283593;62;30203;-77
2021/12/09 16:51:15;;;;;;;2.05;1.75;;;16.40;72.20;;;;;;2268212;62;30192;-79
2021/12/09 16:53:46;;;;;;;3.33;1.98;;;16.40;72.10;;;;;;2276349;62;30106;-78
2021/12/09 16:59:05;;;;;;;1.75;1.60;;;16.40;72.00;;;;;;2271646;62;31097;-79
2021/12/09 17:01:33;;;;;;;3.25;1.80;;;16.40;71.90;;;;;;2276598;62;30314;-78
2021/12/09 17:03:59;;;;;;;4.68;2.20;;;16.40;71.90;;;;;;2273562;62;30322;-77
2021/12/09 17:06:25;;;;;;;2.42;1.77;;;16.40;71.90;;;;;;2275571;62;30274;-85
2021/12/09 17:08:53;;;;;;;2.08;1.90;;;16.40;72.10;;;;;;2268185;62;30048;-86
2021/12/09 17:11:20;;;;;;;2.53;2.20;;;16.40;71.90;;;;;;2268319;62;29982;-85
2021/12/09 17:13:47;;;;;;;2.92;2.20;;;16.40;71.80;;;;;;2275589;62;29994;-89
2021/12/09 17:16:14;;;;;;;2.72;2.30;;;16.30;71.80;;;;;;2275714;62;30492;-87
2021/12/09 17:18:41;;;;;;;3.60;2.92;;;16.20;72.00;;;;;;2267144;62;30407;-83
2021/12/09 17:21:07;;;;;;;8.35;2.83;;;16.20;72.10;;;;;;2275558;62;30247;-90
2021/12/09 17:23:33;;;;;;;4.97;3.03;;;16.20;72.30;;;;;;2268248;62;30060;-81
2021/12/09 17:26:03;;;;;;;9.40;3.60;;;16.10;72.40;;;;;;2275304;62;30533;-80
2021/12/09 17:28:29;;;;;;;5.05;3.47;;;16.10;72.70;;;;;;2275524;62;30162;-89
2021/12/09 17:30:55;;;;;;;6.40;3.72;;;16.10;72.90;;;;;;2275455;62;30130;-76
2021/12/09 17:33:26;;;;;;;12.20;5.65;;;16.00;73.00;;;;;;2274928;62;30014;-76
2021/12/09 17:35:58;;;;;;;16.42;7.97;;;16.00;73.20;;;;;;2273209;62;30849;-77
2021/12/09 17:38:24;;;;;;;18.02;6.50;;;16.00;73.70;;;;;;2267796;62;30685;-76
2021/12/09 17:40:50;;;;;;;11.93;5.68;;;16.00;73.90;;;;;;2275129;62;29961;-79
2021/12/09 17:43:16;;;;;;;8.55;4.40;;;16.10;73.90;;;;;;2267758;62;30622;-76
2021/12/09 17:45:42;;;;;;;7.05;4.40;;;16.10;73.80;;;;;;2267392;62;30893;-76
2021/12/09 17:48:08;;;;;;;8.45;4.32;;;16.20;73.70;;;;;;2267772;62;30382;-76
2021/12/09 17:50:34;;;;;;;6.50;4.03;;;16.30;73.60;;;;;;2268011;62;30354;-77
2021/12/09 17:53:06;;;;;;;5.30;3.47;;;16.40;73.50;;;;;;2275060;62;29994;-77
2021/12/09 17:55:33;;;;;;;5.97;3.35;;;16.40;73.40;;;;;;2268214;62;30608;-76
2021/12/09 17:57:59;;;;;;;5.68;3.60;;;16.50;73.30;;;;;;2267807;62;30122;-77
2021/12/09 18:00:27;;;;;;;4.55;2.78;;;16.50;73.20;;;;;;2267688;62;30457;-78
2021/12/09 18:02:54;;;;;;;3.47;2.70;;;16.60;73.10;;;;;;2275099;62;30241;-77
2021/12/09 18:05:20;;;;;;;5.05;2.67;;;16.60;73.00;;;;;;2274763;62;30168;-78
2021/12/09 18:07:48;;;;;;;4.55;2.90;;;16.70;72.90;;;;;;2260864;62;31197;-78
2021/12/09 18:10:13;;;;;;;4.15;2.40;;;16.70;72.80;;;;;;2267811;62;30143;-79
2021/12/09 18:12:39;;;;;;;4.28;2.70;;;16.70;72.60;;;;;;2261231;62;30118;-76
2021/12/09 18:15:11;;;;;;;4.22;2.58;;;16.70;72.50;;;;;;2275014;62;30119;-77
2021/12/09 18:17:43;;;;;;;4.03;2.30;;;16.80;72.50;;;;;;2274767;62;30097;-77
2021/12/09 18:20:11;;;;;;;3.72;2.45;;;16.80;72.40;;;;;;2275121;62;30137;-77
2021/12/09 18:22:37;;;;;;;4.78;2.33;;;16.80;72.30;;;;;;2277716;62;30176;-77
2021/12/09 18:25:04;;;;;;;4.30;2.72;;;16.90;72.30;;;;;;2270054;62;30205;-76
2021/12/09 18:27:33;;;;;;;2.95;2.30;;;16.90;72.20;;;;;;2267124;62;30337;-77
2021/12/09 18:29:59;;;;;;;2.90;2.20;;;16.90;72.10;;;;;;2267205;62;30135;-76
2021/12/09 18:32:25;;;;;;;2.10;2.00;;;17.00;72.00;;;;;;2260904;62;30548;-79
2021/12/09 18:34:55;;;;;;;2.67;2.10;;;17.00;71.90;;;;;;2267366;62;30247;-81
2021/12/09 18:37:32;;;;;;;2.38;2.15;;;17.00;71.80;;;;;;2280447;62;30061;-79
2021/12/09 18:39:59;;;;;;;2.25;2.05;;;17.10;71.70;;;;;;2283164;62;30245;-80
2021/12/09 18:42:24;;;;;;;2.70;1.92;;;17.10;71.60;;;;;;2282880;62;30193;-80
2021/12/09 18:44:52;;;;;;;2.78;1.77;;;17.10;71.40;;;;;;2283014;62;30234;-79
2021/12/09 18:47:21;;;;;;;2.15;1.88;;;17.20;71.40;;;;;;2275620;62;31052;-80
2021/12/09 18:49:47;;;;;;;2.10;1.92;;;17.20;71.10;;;;;;2282763;62;30820;-80
2021/12/09 18:52:14;;;;;;;2.15;1.95;;;17.30;71.10;;;;;;2283310;62;30866;-83
2021/12/09 18:54:41;;;;;;;2.65;2.00;;;17.30;70.90;;;;;;2284019;62;30106;-82
2021/12/09 18:57:07;;;;;;;2.63;1.90;;;17.30;70.70;;;;;;2276712;62;30587;-82
2021/12/09 18:59:33;;;;;;;2.53;2.15;;;17.40;70.70;;;;;;2284187;62;30341;-81
2021/12/09 19:01:59;;;;;;;2.28;2.05;;;17.40;70.60;;;;;;2284204;62;29992;-83
2021/12/09 19:04:25;;;;;;;2.30;2.08;;;17.40;70.40;;;;;;2269730;62;30868;-84
2021/12/09 19:06:51;;;;;;;3.58;2.10;;;17.50;70.30;;;;;;2283881;62;30322;-82
2021/12/09 19:09:17;;;;;;;2.22;2.03;;;17.40;70.20;;;;;;2284299;62;30066;-83
2021/12/09 19:11:43;;;;;;;2.38;2.15;;;17.40;70.10;;;;;;2284149;62;30078;-78
2021/12/09 19:14:10;;;;;;;2.28;2.00;;;17.50;70.10;;;;;;2284032;62;30898;-81
2021/12/09 19:16:40;;;;;;;2.38;2.10;;;17.50;70.00;;;;;;2277787;62;31525;-81
2021/12/09 19:19:11;;;;;;;2.75;2.05;;;17.50;69.90;;;;;;2283258;62;30171;-81
2021/12/09 19:21:37;;;;;;;2.42;2.03;;;17.50;69.80;;;;;;2279810;62;31435;-80
2021/12/09 19:24:03;;;;;;;2.22;1.80;;;17.50;69.70;;;;;;2275795;62;30272;-80
2021/12/09 19:26:29;;;;;;;2.40;1.80;;;17.50;69.70;;;;;;2276067;62;30599;-80
2021/12/09 19:28:55;;;;;;;2.70;1.95;;;17.60;69.70;;;;;;2275990;62;30178;-82
2021/12/09 19:31:21;;;;;;;2.33;2.08;;;17.60;69.60;;;;;;2268210;62;30263;-78
2021/12/09 19:33:47;;;;;;;2.17;1.98;;;17.50;69.50;;;;;;2275624;62;31874;-79
2021/12/09 19:36:14;;;;;;;2.30;2.10;;;17.60;69.50;;;;;;2275621;62;30130;-79
2021/12/09 19:38:42;;;;;;;2.63;2.00;;;17.60;69.40;;;;;;2283241;62;30392;-76
2021/12/09 19:41:09;;;;;;;1.95;1.85;;;17.60;69.40;;;;;;2284200;62;30054;-76
2021/12/09 19:43:36;;;;;;;2.70;2.10;;;17.60;69.40;;;;;;2284026;62;30943;-76
2021/12/09 19:46:03;;;;;;;3.05;1.83;;;17.60;69.40;;;;;;2276422;62;30561;-76
2021/12/09 19:48:29;;;;;;;2.22;2.03;;;17.60;69.40;;;;;;2283773;62;30367;-77
2021/12/09 19:50:55;;;;;;;3.83;2.10;;;17.50;69.40;;;;;;2276668;62;29983;-76
2021/12/09 19:53:21;;;;;;;2.30;2.10;;;17.50;69.40;;;;;;2276271;62;30342;-76
2021/12/09 19:55:48;;;;;;;3.05;2.17;;;17.50;69.40;;;;;;2276813;62;30673;-75
2021/12/09 19:58:14;;;;;;;2.72;1.92;;;17.50;69.50;;;;;;2283557;62;30059;-75
2021/12/09 20:00:40;;;;;;;3.67;2.30;;;17.50;69.60;;;;;;2275975;62;30171;-75
2021/12/09 20:03:08;;;;;;;3.80;2.50;;;17.50;69.60;;;;;;2283789;62;30039;-76
2021/12/09 20:05:34;;;;;;;2.33;2.00;;;17.40;69.60;;;;;;2283534;62;30253;-76
2021/12/09 20:08:00;;;;;;;4.13;2.13;;;17.40;69.70;;;;;;2276347;62;30151;-76
2021/12/09 20:10:27;;;;;;;3.15;2.20;;;17.40;69.80;;;;;;2283843;62;30853;-76
2021/12/09 20:12:53;;;;;;;2.45;2.20;;;17.40;69.90;;;;;;2283599;62;30874;-75
2021/12/09 20:15:19;;;;;;;2.85;2.47;;;17.40;70.00;;;;;;2283810;62;30106;-76
2021/12/09 20:17:47;;;;;;;3.90;2.28;;;17.30;70.00;;;;;;2276545;62;30226;-76
2021/12/09 20:20:14;;;;;;;2.55;2.35;;;17.30;70.00;;;;;;2276200;62;30030;-76
2021/12/09 20:22:40;;;;;;;2.67;2.30;;;17.30;70.10;;;;;;2276544;62;31509;-75
2021/12/09 20:25:10;;;;;;;2.60;2.03;;;17.30;70.10;;;;;;2283886;62;30761;-75
2021/12/09 20:27:36;;;;;;;3.20;2.42;;;17.20;70.20;;;;;;2276233;62;30075;-75
2021/12/09 20:30:03;;;;;;;3.13;2.13;;;17.20;70.20;;;;;;2276152;62;30167;-76
2021/12/09 20:32:29;;;;;;;3.28;2.10;;;17.20;70.30;;;;;;2283765;62;31022;-75
2021/12/09 20:34:56;;;;;;;3.22;2.30;;;17.20;70.30;;;;;;2283589;62;29938;-74
2021/12/09 20:37:22;;;;;;;6.00;2.58;;;17.20;70.40;;;;;;2283766;62;30092;-75
2021/12/09 20:39:48;;;;;;;2.55;2.35;;;17.20;70.40;;;;;;2283699;62;30630;-76
2021/12/09 20:42:13;;;;;;;3.72;2.47;;;17.10;70.30;;;;;;2283352;62;30343;-75
2021/12/09 20:44:39;;;;;;;2.67;2.20;;;17.20;70.50;;;;;;2276249;62;30511;-72
2021/12/09 20:47:05;;;;;;;2.60;2.40;;;17.10;70.40;;;;;;2273171;62;30190;-75
2021/12/09 20:49:32;;;;;;;4.82;2.30;;;17.20;70.50;;;;;;2275231;62;30763;-72
2021/12/09 20:51:58;;;;;;;3.75;2.60;;;17.10;70.50;;;;;;2261302;62;32241;-71
2021/12/09 20:54:24;;;;;;;2.70;2.15;;;17.20;70.20;;;;;;2275271;62;30451;-71
2021/12/09 20:56:50;;;;;;;3.20;2.20;;;17.20;70.10;;;;;;2267672;62;30031;-71
2021/12/09 20:59:16;;;;;;;2.70;2.30;;;17.20;69.90;;;;;;2267705;62;30180;-72
2021/12/09 21:01:43;;;;;;;2.72;2.13;;;17.20;69.80;;;;;;2275004;62;31095;-71
2021/12/09 21:04:08;;;;;;;2.30;2.10;;;17.20;69.70;;;;;;2267742;62;30742;-71
2021/12/09 21:06:34;;;;;;;2.45;2.05;;;17.30;69.70;;;;;;2267516;62;30606;-71
2021/12/09 21:09:00;;;;;;;2.60;2.30;;;17.30;69.60;;;;;;2275511;62;30320;-72
2021/12/09 21:11:29;;;;;;;3.85;2.55;;;17.30;69.60;;;;;;2275392;62;30202;-71
2021/12/09 21:13:58;;;;;;;2.67;2.47;;;17.30;69.50;;;;;;2275242;62;30288;-71
2021/12/09 21:16:28;;;;;;;2.50;2.30;;;17.30;69.50;;;;;;2274215;62;30550;-73
2021/12/09 21:18:56;;;;;;;2.92;2.42;;;17.30;69.50;;;;;;2267953;62;30107;-71
2021/12/09 21:21:21;;;;;;;3.28;2.38;;;17.30;69.50;;;;;;2267574;62;30213;-72
2021/12/09 21:23:47;;;;;;;2.67;2.35;;;17.30;69.50;;;;;;2267526;62;30066;-71
2021/12/09 21:26:13;;;;;;;2.40;2.20;;;17.30;69.50;;;;;;2275347;62;30113;-73
2021/12/09 21:28:40;;;;;;;2.75;2.47;;;17.40;69.50;;;;;;2283492;62;30266;-73
2021/12/09 21:31:07;;;;;;;2.88;2.50;;;17.40;69.60;;;;;;2283147;62;30212;-73
2021/12/09 21:33:40;;;;;;;2.17;2.00;;;17.40;69.50;;;;;;2275953;62;30307;-73
2021/12/09 21:36:09;;;;;;;2.50;2.17;;;17.40;69.60;;;;;;2283551;62;30227;-72
2021/12/09 21:38:35;;;;;;;3.72;2.45;;;17.40;69.50;;;;;;2279330;62;29994;-71
2021/12/09 21:41:01;;;;;;;2.35;2.13;;;17.40;69.50;;;;;;2271325;62;30832;-70
2021/12/09 21:43:30;;;;;;;3.45;2.50;;;17.40;69.50;;;;;;2261380;62;30040;-72
2021/12/09 21:45:56;;;;;;;5.03;3.00;;;17.40;69.50;;;;;;2267534;62;30210;-72
2021/12/09 21:48:22;;;;;;;4.03;2.40;;;17.40;69.40;;;;;;2275191;62;30425;-71
2021/12/09 21:50:48;;;;;;;2.45;2.17;;;17.40;69.40;;;;;;2267565;62;30541;-71
2021/12/09 21:53:14;;;;;;;2.38;2.17;;;17.40;69.40;;;;;;2283212;62;31719;-71
2021/12/09 21:55:41;;;;;;;2.20;2.00;;;17.50;69.40;;;;;;2283376;62;30028;-71
2021/12/09 21:58:08;;;;;;;3.22;2.65;;;17.50;69.40;;;;;;2275599;62;30521;-72
2021/12/09 22:00:35;;;;;;;2.88;2.00;;;17.40;69.30;;;;;;2275844;62;30620;-71
2021/12/09 22:03:01;;;;;;;3.10;2.55;;;17.50;69.40;;;;;;2276200;62;30125;-72
2021/12/09 22:05:30;;;;;;;2.85;2.30;;;17.50;69.40;;;;;;2275748;62;30289;-72
2021/12/09 22:07:57;;;;;;;2.60;2.40;;;17.50;69.40;;;;;;2283433;62;30070;-72
2021/12/09 22:10:24;;;;;;;3.65;2.40;;;17.50;69.40;;;;;;2275238;62;30783;-73
2021/12/09 22:12:52;;;;;;;3.05;2.40;;;17.40;69.40;;;;;;2263308;62;30977;-73
2021/12/09 22:15:19;;;;;;;3.60;2.40;;;17.50;69.50;;;;;;2275158;62;30054;-72
2021/12/09 22:17:45;;;;;;;2.85;2.53;;;17.50;69.50;;;;;;2261037;62;30143;-72
2021/12/09 22:20:15;;;;;;;2.70;2.50;;;17.50;69.50;;;;;;2274852;62;30356;-72
2021/12/09 22:22:41;;;;;;;3.40;2.50;;;17.40;69.40;;;;;;2275167;62;30176;-71
2021/12/09 22:25:08;;;;;;;3.20;2.70;;;17.50;69.50;;;;;;2254377;62;30304;-72
2021/12/09 22:27:34;;;;;;;4.10;2.60;;;17.50;69.40;;;;;;2261473;62;30385;-73
2021/12/09 22:30:00;;;;;;;2.70;2.50;;;17.40;69.50;;;;;;2284701;62;30073;-72
2021/12/09 22:32:26;;;;;;;2.88;2.20;;;17.50;69.60;;;;;;2284779;62;30145;-73
2021/12/09 22:34:52;;;;;;;3.42;2.60;;;17.40;69.50;;;;;;2277037;62;30214;-71
2021/12/09 22:37:18;;;;;;;3.20;2.50;;;17.40;69.50;;;;;;2277259;62;29974;-73
2021/12/09 22:39:45;;;;;;;3.53;2.50;;;17.40;69.50;;;;;;2272997;62;30214;-73
2021/12/09 22:42:12;;;;;;;2.75;2.40;;;17.40;69.60;;;;;;2268878;62;30101;-74
2021/12/09 22:44:41;;;;;;;4.80;3.63;;;17.40;69.60;;;;;;2279419;62;30227;-72
2021/12/09 22:47:07;;;;;;;4.68;3.50;;;17.40;69.50;;;;;;2276721;62;30363;-73
2021/12/09 22:49:39;;;;;;;5.57;3.33;;;17.40;69.50;;;;;;2276152;62;30709;-73
2021/12/09 22:52:05;;;;;;;5.13;3.17;;;17.40;69.60;;;;;;2276468;62;30132;-74
2021/12/09 22:54:32;;;;;;;5.05;3.10;;;17.40;69.50;;;;;;2283428;62;30176;-73
2021/12/09 22:56:58;;;;;;;4.63;2.80;;;17.40;69.50;;;;;;2284423;62;30197;-73
2021/12/09 22:59:24;;;;;;;4.78;2.85;;;17.40;69.50;;;;;;2276557;62;30809;-73
2021/12/09 23:01:50;;;;;;;3.20;2.88;;;17.40;70.20;;;;;;2279952;62;30983;-73
2021/12/09 23:04:21;;;;;;;5.13;2.90;;;17.40;69.50;;;;;;2277059;62;30229;-73
2021/12/09 23:06:48;;;;;;;3.83;2.80;;;17.40;69.40;;;;;;2277070;62;30350;-73
2021/12/09 23:09:14;;;;;;;4.45;2.97;;;17.40;69.50;;;;;;2272543;62;30923;-76
2021/12/09 23:11:44;;;;;;;4.60;2.70;;;17.40;69.60;;;;;;2277250;62;30610;-75
2021/12/09 23:14:27;;;;;;;5.82;2.40;;;17.40;69.50;;;;;;2263298;62;30069;-75
2021/12/09 23:16:54;;;;;;;3.78;2.75;;;17.40;69.50;;;;;;2270677;62;30050;-75
2021/12/09 23:19:20;;;;;;;2.70;2.50;;;17.40;69.50;;;;;;2269875;62;30056;-75
2021/12/09 23:21:48;;;;;;;5.20;2.75;;;17.40;69.50;;;;;;2277241;62;30738;-75
2021/12/09 23:24:14;;;;;;;2.83;2.63;;;17.40;69.50;;;;;;2262825;62;30109;-76
2021/12/09 23:26:40;;;;;;;7.15;2.80;;;17.40;69.50;;;;;;2277066;62;30048;-77
